sensor_id;sensor_type;location;lat;lon;timestamp;pressure;altitude;pressure_sealevel;temperature;humidity
13690;BME280;6917;52.194;9.894;2022-08-03T00:01:51;100411.84;;;19.48;80.43
13690;BME280;6917;52.194;9.894;2022-08-03T00:04:16;100408.91;;;19.37;80.59
13690;BME280;6917;52.194;9.894;2022-08-03T00:06:42;100403.81;;;19.39;80.70
13690;BME280;6917;52.194;9.894;2022-08-03T00:09:07;100404.28;;;19.45;80.35
13690;BME280;6917;52.194;9.894;2022-08-03T00:11:33;100395.75;;;19.30;81.13
13690;BME280;6917;52.194;9.894;2022-08-03T00:13:59;100400.72;;;19.44;81.12
13690;BME280;6917;52.194;9.894;2022-08-03T00:16:25;100398.63;;;19.38;80.55
13690;BME280;6917;52.194;9.894;2022-08-03T00:18:50;100397.59;;;19.49;81.00
13690;BME280;6917;52.194;9.894;2022-08-03T00:21:16;100399.13;;;19.43;80.67
13690;BME280;6917;52.194;9.894;2022-08-03T00:23:41;100397.53;;;19.42;80.75
13690;BME280;6917;52.194;9.894;2022-08-03T00:26:07;100403.06;;;19.42;81.12
13690;BME280;6917;52.194;9.894;2022-08-03T00:28:32;100402.06;;;19.54;81.25
13690;BME280;6917;52.194;9.894;2022-08-03T00:30:57;100405.31;;;19.37;81.60
13690;BME280;6917;52.194;9.894;2022-08-03T00:33:23;100400.34;;;19.46;80.79
13690;BME280;6917;52.194;9.894;2022-08-03T00:35:48;100404.81;;;19.54;81.02
13690;BME280;6917;52.194;9.894;2022-08-03T00:38:13;100396.41;;;19.24;81.41
13690;BME280;6917;52.194;9.894;2022-08-03T00:40:39;100395.84;;;19.38;81.84
13690;BME280;6917;52.194;9.894;2022-08-03T00:43:06;100399.50;;;19.42;81.59
13690;BME280;6917;52.194;9.894;2022-08-03T00:45:34;100399.06;;;19.40;81.11
13690;BME280;6917;52.194;9.894;2022-08-03T00:48:00;100394.69;;;19.39;81.38
13690;BME280;6917;52.194;9.894;2022-08-03T00:50:28;100391.44;;;19.33;81.41
13690;BME280;6917;52.194;9.894;2022-08-03T00:52:56;100390.81;;;19.20;81.75
13690;BME280;6917;52.194;9.894;2022-08-03T00:55:22;100389.28;;;19.23;81.96
13690;BME280;6917;52.194;9.894;2022-08-03T00:57:48;100396.25;;;19.13;81.28
13690;BME280;6917;52.194;9.894;2022-08-03T01:00:20;100402.28;;;19.19;81.82
13690;BME280;6917;52.194;9.894;2022-08-03T01:02:46;100397.72;;;19.07;82.25
13690;BME280;6917;52.194;9.894;2022-08-03T01:05:12;100396.50;;;19.05;83.05
13690;BME280;6917;52.194;9.894;2022-08-03T01:08:07;100395.13;;;18.95;83.46
13690;BME280;6917;52.194;9.894;2022-08-03T01:10:57;100395.50;;;18.93;83.89
13690;BME280;6917;52.194;9.894;2022-08-03T01:21:49;100397.09;;;18.71;85.10
13690;BME280;6917;52.194;9.894;2022-08-03T01:29:59;100381.47;;;18.40;86.99
13690;BME280;6917;52.194;9.894;2022-08-03T01:32:34;100390.78;;;18.32;87.72
13690;BME280;6917;52.194;9.894;2022-08-03T01:35:10;100382.91;;;18.34;88.53
13690;BME280;6917;52.194;9.894;2022-08-03T01:37:44;100385.63;;;18.31;89.00
13690;BME280;6917;52.194;9.894;2022-08-03T01:40:12;100385.94;;;18.26;89.39
13690;BME280;6917;52.194;9.894;2022-08-03T01:42:40;100385.41;;;18.20;89.80
13690;BME280;6917;52.194;9.894;2022-08-03T01:45:07;100398.22;;;18.09;90.43
13690;BME280;6917;52.194;9.894;2022-08-03T01:47:35;100381.78;;;17.97;90.78
13690;BME280;6917;52.194;9.894;2022-08-03T01:50:02;100386.69;;;17.88;91.75
13690;BME280;6917;52.194;9.894;2022-08-03T01:52:31;100393.69;;;17.81;92.37
13690;BME280;6917;52.194;9.894;2022-08-03T01:54:57;100380.13;;;17.76;92.73
13690;BME280;6917;52.194;9.894;2022-08-03T01:57:26;100384.84;;;17.76;92.70
13690;BME280;6917;52.194;9.894;2022-08-03T01:59:54;100386.03;;;17.75;92.23
13690;BME280;6917;52.194;9.894;2022-08-03T02:02:21;100393.44;;;17.71;91.73
13690;BME280;6917;52.194;9.894;2022-08-03T02:04:49;100385.75;;;17.64;91.17
13690;BME280;6917;52.194;9.894;2022-08-03T02:07:17;100386.41;;;17.58;91.38
13690;BME280;6917;52.194;9.894;2022-08-03T02:09:46;100389.97;;;17.58;91.44
13690;BME280;6917;52.194;9.894;2022-08-03T02:12:14;100386.31;;;17.54;91.65
13690;BME280;6917;52.194;9.894;2022-08-03T02:14:42;100392.91;;;17.49;91.74
13690;BME280;6917;52.194;9.894;2022-08-03T02:17:09;100386.25;;;17.50;92.23
13690;BME280;6917;52.194;9.894;2022-08-03T02:19:35;100394.19;;;17.52;92.33
13690;BME280;6917;52.194;9.894;2022-08-03T02:22:04;100384.63;;;17.49;92.36
13690;BME280;6917;52.194;9.894;2022-08-03T02:24:30;100384.28;;;17.51;92.70
13690;BME280;6917;52.194;9.894;2022-08-03T02:26:57;100384.63;;;17.49;93.11
13690;BME280;6917;52.194;9.894;2022-08-03T02:29:25;100387.66;;;17.44;93.24
13690;BME280;6917;52.194;9.894;2022-08-03T02:31:53;100383.66;;;17.42;93.45
13690;BME280;6917;52.194;9.894;2022-08-03T02:34:23;100373.78;;;17.41;93.68
13690;BME280;6917;52.194;9.894;2022-08-03T02:36:52;100380.47;;;17.40;93.50
13690;BME280;6917;52.194;9.894;2022-08-03T02:39:19;100378.59;;;17.44;92.95
13690;BME280;6917;52.194;9.894;2022-08-03T02:41:51;100376.00;;;17.51;92.58
13690;BME280;6917;52.194;9.894;2022-08-03T02:44:24;100378.97;;;17.62;92.64
13690;BME280;6917;52.194;9.894;2022-08-03T02:46:55;100368.38;;;17.64;91.80
13690;BME280;6917;52.194;9.894;2022-08-03T02:49:22;100373.47;;;17.62;91.58
13690;BME280;6917;52.194;9.894;2022-08-03T02:51:51;100375.97;;;17.67;91.97
13690;BME280;6917;52.194;9.894;2022-08-03T02:54:17;100371.06;;;17.60;91.74
13690;BME280;6917;52.194;9.894;2022-08-03T02:56:45;100373.13;;;17.47;91.93
13690;BME280;6917;52.194;9.894;2022-08-03T02:59:13;100380.88;;;17.58;92.61
13690;BME280;6917;52.194;9.894;2022-08-03T03:01:39;100368.41;;;17.48;92.52
13690;BME280;6917;52.194;9.894;2022-08-03T03:04:06;100374.66;;;17.45;93.24
13690;BME280;6917;52.194;9.894;2022-08-03T03:06:32;100372.44;;;17.50;93.51
13690;BME280;6917;52.194;9.894;2022-08-03T03:08:58;100365.38;;;17.53;93.30
13690;BME280;6917;52.194;9.894;2022-08-03T03:11:25;100367.59;;;17.47;93.23
13690;BME280;6917;52.194;9.894;2022-08-03T03:13:51;100370.00;;;17.49;93.66
13690;BME280;6917;52.194;9.894;2022-08-03T03:16:17;100368.03;;;17.49;93.15
13690;BME280;6917;52.194;9.894;2022-08-03T03:18:44;100372.78;;;17.49;92.90
13690;BME280;6917;52.194;9.894;2022-08-03T03:21:11;100366.66;;;17.40;93.19
13690;BME280;6917;52.194;9.894;2022-08-03T03:23:39;100372.34;;;17.31;93.44
13690;BME280;6917;52.194;9.894;2022-08-03T03:26:06;100368.00;;;17.30;93.82
13690;BME280;6917;52.194;9.894;2022-08-03T03:28:33;100373.41;;;17.42;93.87
13690;BME280;6917;52.194;9.894;2022-08-03T03:31:01;100371.91;;;17.45;93.05
13690;BME280;6917;52.194;9.894;2022-08-03T03:33:27;100372.94;;;17.56;91.60
13690;BME280;6917;52.194;9.894;2022-08-03T03:35:53;100377.31;;;17.57;90.95
13690;BME280;6917;52.194;9.894;2022-08-03T03:38:19;100366.53;;;17.52;90.18
13690;BME280;6917;52.194;9.894;2022-08-03T03:40:45;100370.91;;;17.53;90.60
13690;BME280;6917;52.194;9.894;2022-08-03T03:43:11;100370.59;;;17.39;91.39
13690;BME280;6917;52.194;9.894;2022-08-03T03:45:37;100379.47;;;17.48;91.89
13690;BME280;6917;52.194;9.894;2022-08-03T03:48:04;100383.22;;;17.40;92.26
13690;BME280;6917;52.194;9.894;2022-08-03T03:50:31;100380.25;;;17.48;92.03
13690;BME280;6917;52.194;9.894;2022-08-03T03:52:57;100379.75;;;17.43;92.41
13690;BME280;6917;52.194;9.894;2022-08-03T03:55:23;100370.13;;;17.52;91.17
13690;BME280;6917;52.194;9.894;2022-08-03T03:57:49;100385.31;;;17.62;90.80
13690;BME280;6917;52.194;9.894;2022-08-03T04:00:16;100384.34;;;17.70;90.91
13690;BME280;6917;52.194;9.894;2022-08-03T04:02:42;100386.03;;;17.75;90.96
13690;BME280;6917;52.194;9.894;2022-08-03T04:05:08;100378.25;;;17.80;90.94
13690;BME280;6917;52.194;9.894;2022-08-03T04:07:57;100374.19;;;17.59;90.66
13690;BME280;6917;52.194;9.894;2022-08-03T04:10:42;100382.81;;;17.73;91.15
13690;BME280;6917;52.194;9.894;2022-08-03T04:13:36;100382.38;;;17.71;90.70
13690;BME280;6917;52.194;9.894;2022-08-03T04:16:03;100387.72;;;17.79;90.92
13690;BME280;6917;52.194;9.894;2022-08-03T04:18:30;100386.25;;;17.86;90.81
13690;BME280;6917;52.194;9.894;2022-08-03T04:21:00;100386.69;;;17.88;90.42
13690;BME280;6917;52.194;9.894;2022-08-03T04:23:29;100390.63;;;17.87;90.51
13690;BME280;6917;52.194;9.894;2022-08-03T04:25:56;100386.69;;;17.88;90.72
13690;BME280;6917;52.194;9.894;2022-08-03T04:28:23;100394.13;;;17.83;90.27
13690;BME280;6917;52.194;9.894;2022-08-03T04:30:48;100402.69;;;17.78;90.68
13690;BME280;6917;52.194;9.894;2022-08-03T04:33:17;100397.25;;;17.82;90.95
13690;BME280;6917;52.194;9.894;2022-08-03T04:35:45;100399.22;;;17.81;90.96
13690;BME280;6917;52.194;9.894;2022-08-03T04:38:13;100404.59;;;17.94;90.58
13690;BME280;6917;52.194;9.894;2022-08-03T04:40:41;100413.34;;;18.15;86.73
13690;BME280;6917;52.194;9.894;2022-08-03T04:43:09;100404.47;;;18.44;84.65
13690;BME280;6917;52.194;9.894;2022-08-03T04:45:35;100409.09;;;18.60;83.43
13690;BME280;6917;52.194;9.894;2022-08-03T04:48:01;100403.13;;;18.77;81.13
13690;BME280;6917;52.194;9.894;2022-08-03T04:50:27;100410.28;;;19.01;78.35
13690;BME280;6917;52.194;9.894;2022-08-03T04:52:53;100418.91;;;19.19;77.34
13690;BME280;6917;52.194;9.894;2022-08-03T04:55:30;100414.09;;;19.39;76.62
13690;BME280;6917;52.194;9.894;2022-08-03T04:57:56;100423.50;;;19.57;74.43
13690;BME280;6917;52.194;9.894;2022-08-03T05:00:22;100424.19;;;19.77;73.33
13690;BME280;6917;52.194;9.894;2022-08-03T05:02:47;100431.66;;;19.99;72.16
13690;BME280;6917;52.194;9.894;2022-08-03T05:05:12;100429.47;;;20.15;71.21
13690;BME280;6917;52.194;9.894;2022-08-03T05:07:40;100431.16;;;20.24;70.59
13690;BME280;6917;52.194;9.894;2022-08-03T05:10:07;100437.69;;;20.38;69.83
13690;BME280;6917;52.194;9.894;2022-08-03T05:12:33;100435.84;;;20.46;70.95
13690;BME280;6917;52.194;9.894;2022-08-03T05:14:59;100433.56;;;20.25;75.75
13690;BME280;6917;52.194;9.894;2022-08-03T05:17:24;100436.09;;;20.07;77.93
13690;BME280;6917;52.194;9.894;2022-08-03T05:19:50;100433.47;;;19.88;78.84
13690;BME280;6917;52.194;9.894;2022-08-03T05:22:15;100426.69;;;19.85;79.02
13690;BME280;6917;52.194;9.894;2022-08-03T05:24:40;100427.75;;;19.77;79.69
13690;BME280;6917;52.194;9.894;2022-08-03T05:27:06;100429.19;;;19.94;75.15
13690;BME280;6917;52.194;9.894;2022-08-03T05:29:31;100427.34;;;20.05;78.48
13690;BME280;6917;52.194;9.894;2022-08-03T05:31:56;100422.25;;;19.81;80.35
13690;BME280;6917;52.194;9.894;2022-08-03T05:34:22;100419.06;;;19.79;80.98
13690;BME280;6917;52.194;9.894;2022-08-03T05:36:47;100423.38;;;19.76;81.45
13690;BME280;6917;52.194;9.894;2022-08-03T05:39:12;100425.75;;;19.74;82.11
13690;BME280;6917;52.194;9.894;2022-08-03T05:41:38;100417.97;;;19.83;82.52
13690;BME280;6917;52.194;9.894;2022-08-03T05:44:03;100425.59;;;19.94;82.08
13690;BME280;6917;52.194;9.894;2022-08-03T05:46:28;100418.56;;;20.00;80.61
13690;BME280;6917;52.194;9.894;2022-08-03T05:48:54;100417.06;;;20.06;79.93
13690;BME280;6917;52.194;9.894;2022-08-03T05:51:19;100420.41;;;20.18;80.76
13690;BME280;6917;52.194;9.894;2022-08-03T05:53:45;100426.94;;;20.33;80.09
13690;BME280;6917;52.194;9.894;2022-08-03T05:56:10;100419.84;;;20.39;79.42
13690;BME280;6917;52.194;9.894;2022-08-03T05:58:36;100424.34;;;20.47;77.73
13690;BME280;6917;52.194;9.894;2022-08-03T06:01:02;100412.53;;;20.54;77.42
13690;BME280;6917;52.194;9.894;2022-08-03T06:03:27;100422.19;;;20.67;76.74
13690;BME280;6917;52.194;9.894;2022-08-03T06:05:53;100417.56;;;20.78;75.56
13690;BME280;6917;52.194;9.894;2022-08-03T06:08:20;100424.88;;;20.97;76.87
13690;BME280;6917;52.194;9.894;2022-08-03T06:10:46;100422.97;;;21.05;74.99
13690;BME280;6917;52.194;9.894;2022-08-03T06:13:11;100418.75;;;21.22;73.72
13690;BME280;6917;52.194;9.894;2022-08-03T06:15:36;100425.66;;;21.38;70.42
13690;BME280;6917;52.194;9.894;2022-08-03T06:18:02;100432.53;;;21.52;69.71
13690;BME280;6917;52.194;9.894;2022-08-03T06:20:27;100425.47;;;21.68;68.97
13690;BME280;6917;52.194;9.894;2022-08-03T06:22:53;100427.25;;;21.94;67.77
13690;BME280;6917;52.194;9.894;2022-08-03T06:25:18;100427.75;;;22.07;68.15
13690;BME280;6917;52.194;9.894;2022-08-03T06:27:44;100429.00;;;22.17;67.35
13690;BME280;6917;52.194;9.894;2022-08-03T06:30:10;100421.91;;;22.34;65.53
13690;BME280;6917;52.194;9.894;2022-08-03T06:32:39;100420.34;;;22.43;65.24
13690;BME280;6917;52.194;9.894;2022-08-03T06:35:05;100433.09;;;22.51;65.53
13690;BME280;6917;52.194;9.894;2022-08-03T06:37:44;100429.91;;;22.56;65.24
13690;BME280;6917;52.194;9.894;2022-08-03T06:40:16;100435.91;;;22.62;65.15
13690;BME280;6917;52.194;9.894;2022-08-03T06:42:43;100440.72;;;22.76;64.84
13690;BME280;6917;52.194;9.894;2022-08-03T06:45:09;100439.16;;;22.82;64.49
13690;BME280;6917;52.194;9.894;2022-08-03T06:47:36;100438.00;;;22.97;63.90
13690;BME280;6917;52.194;9.894;2022-08-03T06:50:02;100441.63;;;23.15;64.98
13690;BME280;6917;52.194;9.894;2022-08-03T06:52:28;100446.00;;;23.27;62.92
13690;BME280;6917;52.194;9.894;2022-08-03T06:54:53;100447.22;;;23.48;63.59
13690;BME280;6917;52.194;9.894;2022-08-03T06:57:19;100442.84;;;23.61;63.25
13690;BME280;6917;52.194;9.894;2022-08-03T06:59:44;100447.63;;;23.74;62.21
13690;BME280;6917;52.194;9.894;2022-08-03T07:02:09;100452.38;;;23.92;61.22
13690;BME280;6917;52.194;9.894;2022-08-03T07:04:35;100456.72;;;24.07;60.80
13690;BME280;6917;52.194;9.894;2022-08-03T07:07:01;100447.53;;;24.17;62.15
13690;BME280;6917;52.194;9.894;2022-08-03T07:09:26;100448.31;;;24.21;59.72
13690;BME280;6917;52.194;9.894;2022-08-03T07:11:52;100449.06;;;24.36;59.00
13690;BME280;6917;52.194;9.894;2022-08-03T07:14:17;100451.03;;;24.43;59.35
13690;BME280;6917;52.194;9.894;2022-08-03T07:16:43;100461.75;;;24.55;58.62
13690;BME280;6917;52.194;9.894;2022-08-03T07:19:08;100450.56;;;24.62;58.71
13690;BME280;6917;52.194;9.894;2022-08-03T07:21:33;100451.28;;;24.70;58.48
13690;BME280;6917;52.194;9.894;2022-08-03T07:23:59;100444.44;;;24.81;58.11
13690;BME280;6917;52.194;9.894;2022-08-03T07:26:24;100456.75;;;24.95;57.68
13690;BME280;6917;52.194;9.894;2022-08-03T07:28:49;100455.94;;;24.98;57.35
13690;BME280;6917;52.194;9.894;2022-08-03T07:31:15;100456.72;;;25.05;56.65
13690;BME280;6917;52.194;9.894;2022-08-03T07:33:40;100457.81;;;25.15;56.04
13690;BME280;6917;52.194;9.894;2022-08-03T07:36:05;100452.59;;;25.24;56.19
13690;BME280;6917;52.194;9.894;2022-08-03T07:38:31;100457.03;;;25.18;55.06
13690;BME280;6917;52.194;9.894;2022-08-03T07:40:56;100451.03;;;25.19;56.14
13690;BME280;6917;52.194;9.894;2022-08-03T07:43:22;100464.53;;;25.28;55.48
13690;BME280;6917;52.194;9.894;2022-08-03T07:45:48;100459.28;;;25.37;55.50
13690;BME280;6917;52.194;9.894;2022-08-03T07:48:13;100465.97;;;25.50;56.21
13690;BME280;6917;52.194;9.894;2022-08-03T07:50:39;100462.72;;;25.56;56.31
13690;BME280;6917;52.194;9.894;2022-08-03T07:53:04;100459.03;;;25.66;55.27
13690;BME280;6917;52.194;9.894;2022-08-03T07:55:30;100456.53;;;25.78;55.61
13690;BME280;6917;52.194;9.894;2022-08-03T07:58:06;100454.34;;;25.97;54.34
13690;BME280;6917;52.194;9.894;2022-08-03T08:00:34;100453.56;;;25.96;54.38
13690;BME280;6917;52.194;9.894;2022-08-03T08:03:00;100451.88;;;26.02;53.57
13690;BME280;6917;52.194;9.894;2022-08-03T08:05:26;100453.47;;;26.03;54.39
13690;BME280;6917;52.194;9.894;2022-08-03T08:07:52;100454.09;;;26.18;54.35
13690;BME280;6917;52.194;9.894;2022-08-03T08:10:18;100458.00;;;26.28;53.16
13690;BME280;6917;52.194;9.894;2022-08-03T08:12:43;100447.53;;;26.32;53.41
13690;BME280;6917;52.194;9.894;2022-08-03T08:15:09;100453.94;;;26.32;52.42
13690;BME280;6917;52.194;9.894;2022-08-03T08:17:54;100446.16;;;26.47;52.54
13690;BME280;6917;52.194;9.894;2022-08-03T08:20:25;100446.47;;;26.56;52.52
13690;BME280;6917;52.194;9.894;2022-08-03T08:22:51;100439.38;;;26.48;52.38
13690;BME280;6917;52.194;9.894;2022-08-03T08:25:16;100441.66;;;26.57;52.32
13690;BME280;6917;52.194;9.894;2022-08-03T08:27:48;100436.94;;;26.50;52.27
13690;BME280;6917;52.194;9.894;2022-08-03T08:30:16;100443.72;;;26.53;53.07
13690;BME280;6917;52.194;9.894;2022-08-03T08:32:43;100443.16;;;26.65;52.97
13690;BME280;6917;52.194;9.894;2022-08-03T08:35:09;100437.84;;;26.71;53.55
13690;BME280;6917;52.194;9.894;2022-08-03T08:37:34;100439.56;;;26.91;53.50
13690;BME280;6917;52.194;9.894;2022-08-03T08:40:00;100436.53;;;27.09;52.78
13690;BME280;6917;52.194;9.894;2022-08-03T08:42:26;100432.75;;;27.19;52.85
13690;BME280;6917;52.194;9.894;2022-08-03T08:44:51;100429.41;;;27.28;51.91
13690;BME280;6917;52.194;9.894;2022-08-03T08:47:24;100431.91;;;27.22;50.75
13690;BME280;6917;52.194;9.894;2022-08-03T08:49:53;100436.38;;;27.20;51.47
13690;BME280;6917;52.194;9.894;2022-08-03T08:52:23;100426.22;;;27.26;51.39
13690;BME280;6917;52.194;9.894;2022-08-03T08:54:51;100438.44;;;27.39;51.67
13690;BME280;6917;52.194;9.894;2022-08-03T08:57:19;100434.47;;;27.37;50.54
13690;BME280;6917;52.194;9.894;2022-08-03T08:59:46;100435.94;;;27.45;51.09
13690;BME280;6917;52.194;9.894;2022-08-03T09:02:12;100435.31;;;27.57;51.03
13690;BME280;6917;52.194;9.894;2022-08-03T09:04:38;100432.66;;;27.73;49.92
13690;BME280;6917;52.194;9.894;2022-08-03T09:07:04;100431.06;;;27.72;49.62
13690;BME280;6917;52.194;9.894;2022-08-03T09:09:31;100425.16;;;27.67;49.17
13690;BME280;6917;52.194;9.894;2022-08-03T09:11:56;100434.59;;;27.76;50.02
13690;BME280;6917;52.194;9.894;2022-08-03T09:14:22;100424.16;;;27.77;49.80
13690;BME280;6917;52.194;9.894;2022-08-03T09:16:55;100424.03;;;27.84;49.68
13690;BME280;6917;52.194;9.894;2022-08-03T09:19:23;100417.84;;;27.93;49.21
13690;BME280;6917;52.194;9.894;2022-08-03T09:22:12;100424.56;;;27.99;49.30
13690;BME280;6917;52.194;9.894;2022-08-03T09:24:52;100426.38;;;28.09;48.97
13690;BME280;6917;52.194;9.894;2022-08-03T09:27:19;100435.06;;;28.14;48.95
13690;BME280;6917;52.194;9.894;2022-08-03T09:29:49;100424.50;;;28.22;48.91
13690;BME280;6917;52.194;9.894;2022-08-03T09:32:14;100420.75;;;28.29;48.81
13690;BME280;6917;52.194;9.894;2022-08-03T09:34:43;100424.41;;;28.26;48.29
13690;BME280;6917;52.194;9.894;2022-08-03T09:37:17;100423.06;;;28.34;49.38
13690;BME280;6917;52.194;9.894;2022-08-03T09:39:43;100426.59;;;28.38;47.56
13690;BME280;6917;52.194;9.894;2022-08-03T09:42:17;100428.44;;;28.25;48.05
13690;BME280;6917;52.194;9.894;2022-08-03T09:44:46;100427.88;;;28.13;48.67
13690;BME280;6917;52.194;9.894;2022-08-03T09:47:14;100425.34;;;28.19;48.68
13690;BME280;6917;52.194;9.894;2022-08-03T09:49:41;100425.63;;;28.25;48.63
13690;BME280;6917;52.194;9.894;2022-08-03T09:52:15;100431.50;;;28.34;48.76
13690;BME280;6917;52.194;9.894;2022-08-03T09:54:43;100420.91;;;28.41;47.85
13690;BME280;6917;52.194;9.894;2022-08-03T09:57:20;100422.97;;;28.57;49.00
13690;BME280;6917;52.194;9.894;2022-08-03T09:59:46;100417.91;;;28.68;48.95
13690;BME280;6917;52.194;9.894;2022-08-03T10:02:25;100409.13;;;28.66;47.47
13690;BME280;6917;52.194;9.894;2022-08-03T10:04:51;100398.19;;;28.52;47.46
13690;BME280;6917;52.194;9.894;2022-08-03T10:07:18;100404.94;;;28.55;48.82
13690;BME280;6917;52.194;9.894;2022-08-03T10:10:02;100402.25;;;28.67;48.14
13690;BME280;6917;52.194;9.894;2022-08-03T10:12:27;100404.41;;;28.80;48.09
13690;BME280;6917;52.194;9.894;2022-08-03T10:14:53;100398.63;;;29.03;46.50
13690;BME280;6917;52.194;9.894;2022-08-03T10:17:20;100411.47;;;29.20;46.29
13690;BME280;6917;52.194;9.894;2022-08-03T10:19:46;100406.81;;;29.30;45.40
13690;BME280;6917;52.194;9.894;2022-08-03T10:22:14;100403.38;;;29.39;46.11
13690;BME280;6917;52.194;9.894;2022-08-03T10:24:48;100392.91;;;29.39;44.90
13690;BME280;6917;52.194;9.894;2022-08-03T10:27:15;100401.25;;;29.43;44.22
13690;BME280;6917;52.194;9.894;2022-08-03T10:29:48;100395.44;;;29.50;44.89
13690;BME280;6917;52.194;9.894;2022-08-03T10:32:31;100398.09;;;29.57;44.73
13690;BME280;6917;52.194;9.894;2022-08-03T10:35:14;100393.69;;;29.40;45.12
13690;BME280;6917;52.194;9.894;2022-08-03T10:38:00;100391.78;;;29.53;44.30
13690;BME280;6917;52.194;9.894;2022-08-03T10:40:28;100392.34;;;29.60;45.44
13690;BME280;6917;52.194;9.894;2022-08-03T10:42:57;100384.06;;;29.70;43.95
13690;BME280;6917;52.194;9.894;2022-08-03T10:45:25;100379.81;;;29.78;44.38
13690;BME280;6917;52.194;9.894;2022-08-03T10:47:52;100381.31;;;29.82;43.18
13690;BME280;6917;52.194;9.894;2022-08-03T10:50:18;100362.28;;;29.86;43.75
13690;BME280;6917;52.194;9.894;2022-08-03T10:52:56;100369.59;;;29.84;43.46
13690;BME280;6917;52.194;9.894;2022-08-03T10:55:33;100373.41;;;30.06;43.45
13690;BME280;6917;52.194;9.894;2022-08-03T11:01:00;100366.59;;;30.04;42.23
13690;BME280;6917;52.194;9.894;2022-08-03T11:03:26;100373.03;;;30.04;42.65
13690;BME280;6917;52.194;9.894;2022-08-03T11:05:51;100361.53;;;29.99;42.88
13690;BME280;6917;52.194;9.894;2022-08-03T11:10:49;100362.84;;;30.10;42.89
13690;BME280;6917;52.194;9.894;2022-08-03T11:13:18;100353.88;;;29.99;42.57
13690;BME280;6917;52.194;9.894;2022-08-03T11:15:45;100354.19;;;30.01;43.15
13690;BME280;6917;52.194;9.894;2022-08-03T11:18:12;100364.41;;;30.11;42.08
13690;BME280;6917;52.194;9.894;2022-08-03T11:23:10;100363.63;;;30.11;42.78
13690;BME280;6917;52.194;9.894;2022-08-03T11:26:07;100357.19;;;30.10;42.58
13690;BME280;6917;52.194;9.894;2022-08-03T11:28:32;100352.00;;;30.21;42.22
13690;BME280;6917;52.194;9.894;2022-08-03T11:39:41;100358.38;;;30.64;41.30
13690;BME280;6917;52.194;9.894;2022-08-03T11:44:58;100350.25;;;30.78;42.71
13690;BME280;6917;52.194;9.894;2022-08-03T11:47:26;100343.16;;;30.87;41.80
13690;BME280;6917;52.194;9.894;2022-08-03T11:49:58;100341.00;;;30.91;41.27
13690;BME280;6917;52.194;9.894;2022-08-03T11:52:26;100343.53;;;31.23;41.31
13690;BME280;6917;52.194;9.894;2022-08-03T11:54:57;100348.03;;;31.33;41.17
13690;BME280;6917;52.194;9.894;2022-08-03T11:57:30;100331.09;;;31.33;39.99
13690;BME280;6917;52.194;9.894;2022-08-03T11:59:56;100343.31;;;31.30;40.46
13690;BME280;6917;52.194;9.894;2022-08-03T12:02:21;100351.13;;;31.26;40.67
13690;BME280;6917;52.194;9.894;2022-08-03T12:04:54;100342.84;;;31.32;41.46
13690;BME280;6917;52.194;9.894;2022-08-03T12:07:23;100346.47;;;31.32;40.35
13690;BME280;6917;52.194;9.894;2022-08-03T12:10:08;100357.72;;;31.45;41.43
13690;BME280;6917;52.194;9.894;2022-08-03T12:12:35;100343.53;;;31.23;39.58
13690;BME280;6917;52.194;9.894;2022-08-03T12:15:02;100340.59;;;31.40;41.93
13690;BME280;6917;52.194;9.894;2022-08-03T12:17:46;100334.34;;;31.66;40.53
13690;BME280;6917;52.194;9.894;2022-08-03T12:20:21;100333.53;;;31.79;40.67
13690;BME280;6917;52.194;9.894;2022-08-03T12:22:46;100334.16;;;31.61;40.43
13690;BME280;6917;52.194;9.894;2022-08-03T12:25:24;100338.88;;;31.64;40.64
13690;BME280;6917;52.194;9.894;2022-08-03T12:27:52;100335.22;;;31.54;41.37
13690;BME280;6917;52.194;9.894;2022-08-03T12:30:18;100328.09;;;31.50;40.52
13690;BME280;6917;52.194;9.894;2022-08-03T12:32:44;100327.31;;;31.84;42.35
13690;BME280;6917;52.194;9.894;2022-08-03T12:35:10;100319.50;;;31.97;39.85
13690;BME280;6917;52.194;9.894;2022-08-03T12:37:47;100323.47;;;32.00;39.53
13690;BME280;6917;52.194;9.894;2022-08-03T12:40:13;100322.44;;;31.84;40.05
13690;BME280;6917;52.194;9.894;2022-08-03T12:42:40;100311.09;;;31.62;40.82
13690;BME280;6917;52.194;9.894;2022-08-03T12:45:23;100313.44;;;31.64;40.79
13690;BME280;6917;52.194;9.894;2022-08-03T12:47:53;100314.25;;;31.43;40.20
13690;BME280;6917;52.194;9.894;2022-08-03T12:52:51;100314.56;;;31.45;40.84
13690;BME280;6917;52.194;9.894;2022-08-03T12:55:21;100314.03;;;31.37;42.27
13690;BME280;6917;52.194;9.894;2022-08-03T12:57:47;100313.56;;;31.38;41.04
13690;BME280;6917;52.194;9.894;2022-08-03T13:00:15;100306.06;;;31.23;40.61
13690;BME280;6917;52.194;9.894;2022-08-03T13:02:41;100305.03;;;31.29;40.68
13690;BME280;6917;52.194;9.894;2022-08-03T13:05:14;100300.78;;;31.47;41.59
13690;BME280;6917;52.194;9.894;2022-08-03T13:07:43;100296.69;;;31.48;41.92
13690;BME280;6917;52.194;9.894;2022-08-03T13:10:09;100297.28;;;31.43;39.85
13690;BME280;6917;52.194;9.894;2022-08-03T13:12:48;100297.84;;;31.03;40.22
13690;BME280;6917;52.194;9.894;2022-08-03T13:15:14;100287.03;;;31.36;40.46
13690;BME280;6917;52.194;9.894;2022-08-03T13:17:40;100297.75;;;31.63;42.72
13690;BME280;6917;52.194;9.894;2022-08-03T13:20:05;100300.72;;;32.03;40.70
13690;BME280;6917;52.194;9.894;2022-08-03T13:22:31;100290.56;;;32.15;40.26
13690;BME280;6917;52.194;9.894;2022-08-03T13:24:57;100302.75;;;32.03;39.27
13690;BME280;6917;52.194;9.894;2022-08-03T13:27:25;100293.16;;;32.00;39.57
13690;BME280;6917;52.194;9.894;2022-08-03T13:29:51;100294.91;;;32.29;38.83
13690;BME280;6917;52.194;9.894;2022-08-03T13:32:17;100295.78;;;32.25;39.90
13690;BME280;6917;52.194;9.894;2022-08-03T13:34:42;100299.63;;;32.32;39.38
13690;BME280;6917;52.194;9.894;2022-08-03T13:37:08;100292.88;;;32.38;39.35
13690;BME280;6917;52.194;9.894;2022-08-03T13:39:33;100296.34;;;32.33;39.31
13690;BME280;6917;52.194;9.894;2022-08-03T13:41:59;100286.44;;;32.38;40.08